sensor_id;sensor_type;location;lat;lon;timestamp;P1;durP1;ratioP1;P2;durP2;ratioP2
46731;SDS011;32477;51.474;5.696;2022-10-16T00:00:31;8.10;;;3.30;;
46731;SDS011;32477;51.474;5.696;2022-10-16T00:02:58;8.77;;;3.17;;
46731;SDS011;32477;51.474;5.696;2022-10-16T00:05:29;5.63;;;2.65;;
46731;SDS011;32477;51.474;5.696;2022-10-16T00:07:55;10.00;;;3.25;;
46731;SDS011;32477;51.474;5.696;2022-10-16T00:10:21;5.60;;;3.13;;
46731;SDS011;32477;51.474;5.696;2022-10-16T00:12:47;5.63;;;3.15;;
46731;SDS011;32477;51.474;5.696;2022-10-16T00:15:22;7.50;;;3.13;;
46731;SDS011;32477;51.474;5.696;2022-10-16T00:17:48;5.47;;;2.90;;
46731;SDS011;32477;51.474;5.696;2022-10-16T00:20:14;13.88;;;3.08;;
46731;SDS011;32477;51.474;5.696;2022-10-16T00:22:44;5.45;;;2.72;;
46731;SDS011;32477;51.474;5.696;2022-10-16T00:25:13;4.78;;;2.70;;
46731;SDS011;32477;51.474;5.696;2022-10-16T00:27:42;7.75;;;3.40;;
46731;SDS011;32477;51.474;5.696;2022-10-16T00:30:13;4.68;;;3.03;;
46731;SDS011;32477;51.474;5.696;2022-10-16T00:32:39;4.70;;;2.75;;
46731;SDS011;32477;51.474;5.696;2022-10-16T00:35:08;7.78;;;3.15;;
46731;SDS011;32477;51.474;5.696;2022-10-16T00:37:34;6.57;;;3.00;;
46731;SDS011;32477;51.474;5.696;2022-10-16T00:40:00;5.47;;;2.72;;
46731;SDS011;32477;51.474;5.696;2022-10-16T00:42:25;11.77;;;3.08;;
46731;SDS011;32477;51.474;5.696;2022-10-16T00:44:56;6.40;;;2.90;;
46731;SDS011;32477;51.474;5.696;2022-10-16T00:47:30;8.93;;;3.30;;
46731;SDS011;32477;51.474;5.696;2022-10-16T00:50:02;5.00;;;2.90;;
46731;SDS011;32477;51.474;5.696;2022-10-16T00:52:41;14.77;;;2.80;;
46731;SDS011;32477;51.474;5.696;2022-10-16T00:55:11;6.63;;;3.03;;
46731;SDS011;32477;51.474;5.696;2022-10-16T00:57:38;9.43;;;3.17;;
46731;SDS011;32477;51.474;5.696;2022-10-16T01:00:06;5.30;;;2.97;;
46731;SDS011;32477;51.474;5.696;2022-10-16T01:02:33;5.72;;;2.47;;
46731;SDS011;32477;51.474;5.696;2022-10-16T01:04:59;6.50;;;3.15;;
46731;SDS011;32477;51.474;5.696;2022-10-16T01:07:36;7.25;;;3.00;;
46731;SDS011;32477;51.474;5.696;2022-10-16T01:13:06;5.00;;;2.53;;
46731;SDS011;32477;51.474;5.696;2022-10-16T01:20:58;4.03;;;2.80;;
46731;SDS011;32477;51.474;5.696;2022-10-16T01:32:04;5.47;;;2.65;;
46731;SDS011;32477;51.474;5.696;2022-10-16T01:34:51;8.48;;;3.00;;
46731;SDS011;32477;51.474;5.696;2022-10-16T01:37:25;3.63;;;2.30;;
46731;SDS011;32477;51.474;5.696;2022-10-16T01:40:26;3.03;;;2.20;;
46731;SDS011;32477;51.474;5.696;2022-10-16T01:42:59;8.60;;;2.97;;
46731;SDS011;32477;51.474;5.696;2022-10-16T01:45:34;5.20;;;2.42;;
46731;SDS011;32477;51.474;5.696;2022-10-16T01:48:01;4.70;;;2.85;;
46731;SDS011;32477;51.474;5.696;2022-10-16T01:50:31;3.92;;;2.55;;
46731;SDS011;32477;51.474;5.696;2022-10-16T01:53:00;5.43;;;3.00;;
46731;SDS011;32477;51.474;5.696;2022-10-16T01:55:29;6.65;;;2.67;;
46731;SDS011;32477;51.474;5.696;2022-10-16T01:57:58;4.03;;;2.78;;
46731;SDS011;32477;51.474;5.696;2022-10-16T02:00:27;4.10;;;2.20;;
46731;SDS011;32477;51.474;5.696;2022-10-16T02:02:55;7.95;;;3.00;;
46731;SDS011;32477;51.474;5.696;2022-10-16T02:07:55;7.10;;;2.60;;
46731;SDS011;32477;51.474;5.696;2022-10-16T02:10:21;4.40;;;2.95;;
46731;SDS011;32477;51.474;5.696;2022-10-16T02:13:17;7.03;;;2.72;;
46731;SDS011;32477;51.474;5.696;2022-10-16T02:15:48;5.25;;;2.53;;
46731;SDS011;32477;51.474;5.696;2022-10-16T02:18:17;6.22;;;2.58;;
46731;SDS011;32477;51.474;5.696;2022-10-16T02:20:57;3.72;;;2.70;;
46731;SDS011;32477;51.474;5.696;2022-10-16T02:26:13;8.98;;;2.63;;
46731;SDS011;32477;51.474;5.696;2022-10-16T02:28:51;7.78;;;2.47;;
46731;SDS011;32477;51.474;5.696;2022-10-16T02:31:24;3.50;;;1.80;;
46731;SDS011;32477;51.474;5.696;2022-10-16T02:33:53;7.68;;;1.77;;
46731;SDS011;32477;51.474;5.696;2022-10-16T02:36:23;5.90;;;1.77;;
46731;SDS011;32477;51.474;5.696;2022-10-16T02:38:53;4.50;;;1.98;;
46731;SDS011;32477;51.474;5.696;2022-10-16T02:41:20;3.67;;;1.77;;
46731;SDS011;32477;51.474;5.696;2022-10-16T02:43:47;4.40;;;2.38;;
46731;SDS011;32477;51.474;5.696;2022-10-16T02:46:13;9.80;;;1.90;;
46731;SDS011;32477;51.474;5.696;2022-10-16T02:48:39;3.20;;;2.00;;
46731;SDS011;32477;51.474;5.696;2022-10-16T02:51:05;4.20;;;2.53;;
46731;SDS011;32477;51.474;5.696;2022-10-16T02:53:31;4.32;;;1.80;;
46731;SDS011;32477;51.474;5.696;2022-10-16T02:55:57;3.90;;;1.90;;
46731;SDS011;32477;51.474;5.696;2022-10-16T02:58:23;3.97;;;1.92;;
46731;SDS011;32477;51.474;5.696;2022-10-16T03:00:49;3.85;;;1.98;;
46731;SDS011;32477;51.474;5.696;2022-10-16T03:03:17;5.55;;;2.15;;
46731;SDS011;32477;51.474;5.696;2022-10-16T03:05:46;9.05;;;2.35;;
46731;SDS011;32477;51.474;5.696;2022-10-16T03:08:15;6.97;;;2.22;;
46731;SDS011;32477;51.474;5.696;2022-10-16T03:10:40;4.28;;;2.25;;
46731;SDS011;32477;51.474;5.696;2022-10-16T03:13:06;4.53;;;2.28;;
46731;SDS011;32477;51.474;5.696;2022-10-16T03:15:32;5.95;;;2.63;;
46731;SDS011;32477;51.474;5.696;2022-10-16T03:17:58;4.00;;;2.00;;
46731;SDS011;32477;51.474;5.696;2022-10-16T03:20:24;4.88;;;1.98;;
46731;SDS011;32477;51.474;5.696;2022-10-16T03:22:50;3.08;;;1.95;;
46731;SDS011;32477;51.474;5.696;2022-10-16T03:25:16;3.63;;;2.15;;
46731;SDS011;32477;51.474;5.696;2022-10-16T03:27:41;4.03;;;2.33;;
46731;SDS011;32477;51.474;5.696;2022-10-16T03:30:10;5.50;;;3.45;;
46731;SDS011;32477;51.474;5.696;2022-10-16T03:32:36;7.28;;;2.30;;
46731;SDS011;32477;51.474;5.696;2022-10-16T03:35:02;3.72;;;2.05;;
46731;SDS011;32477;51.474;5.696;2022-10-16T03:37:28;3.80;;;2.30;;
46731;SDS011;32477;51.474;5.696;2022-10-16T03:39:57;5.03;;;3.13;;
46731;SDS011;32477;51.474;5.696;2022-10-16T03:42:24;12.05;;;2.67;;
46731;SDS011;32477;51.474;5.696;2022-10-16T03:44:50;7.10;;;2.55;;
46731;SDS011;32477;51.474;5.696;2022-10-16T03:47:15;5.95;;;2.22;;
46731;SDS011;32477;51.474;5.696;2022-10-16T03:49:45;5.40;;;2.17;;
46731;SDS011;32477;51.474;5.696;2022-10-16T03:52:11;5.25;;;2.17;;
46731;SDS011;32477;51.474;5.696;2022-10-16T03:57:11;6.80;;;2.63;;
46731;SDS011;32477;51.474;5.696;2022-10-16T03:59:37;8.23;;;1.73;;
46731;SDS011;32477;51.474;5.696;2022-10-16T04:02:03;3.10;;;2.38;;
46731;SDS011;32477;51.474;5.696;2022-10-16T04:04:29;2.83;;;2.30;;
46731;SDS011;32477;51.474;5.696;2022-10-16T04:07:04;3.10;;;1.73;;
46731;SDS011;32477;51.474;5.696;2022-10-16T04:09:35;10.52;;;2.22;;
46731;SDS011;32477;51.474;5.696;2022-10-16T04:12:01;7.35;;;1.70;;
46731;SDS011;32477;51.474;5.696;2022-10-16T04:14:27;4.97;;;2.25;;
46731;SDS011;32477;51.474;5.696;2022-10-16T04:16:56;7.60;;;2.08;;
46731;SDS011;32477;51.474;5.696;2022-10-16T04:19:25;3.30;;;1.98;;
46731;SDS011;32477;51.474;5.696;2022-10-16T04:21:51;3.33;;;1.90;;
46731;SDS011;32477;51.474;5.696;2022-10-16T04:24:17;6.88;;;1.95;;
46731;SDS011;32477;51.474;5.696;2022-10-16T04:26:43;4.93;;;2.08;;
46731;SDS011;32477;51.474;5.696;2022-10-16T04:29:09;2.63;;;1.70;;
46731;SDS011;32477;51.474;5.696;2022-10-16T04:31:35;4.35;;;1.60;;
46731;SDS011;32477;51.474;5.696;2022-10-16T04:34:01;6.97;;;2.38;;
46731;SDS011;32477;51.474;5.696;2022-10-16T04:36:26;4.63;;;1.85;;
46731;SDS011;32477;51.474;5.696;2022-10-16T04:38:52;2.65;;;1.63;;
46731;SDS011;32477;51.474;5.696;2022-10-16T04:41:19;7.47;;;1.77;;
46731;SDS011;32477;51.474;5.696;2022-10-16T04:43:44;4.95;;;2.15;;
46731;SDS011;32477;51.474;5.696;2022-10-16T04:46:13;2.58;;;1.67;;
46731;SDS011;32477;51.474;5.696;2022-10-16T04:48:39;5.63;;;1.83;;
46731;SDS011;32477;51.474;5.696;2022-10-16T04:51:05;7.70;;;2.08;;
46731;SDS011;32477;51.474;5.696;2022-10-16T04:53:30;2.35;;;1.60;;
46731;SDS011;32477;51.474;5.696;2022-10-16T04:56:08;2.38;;;1.70;;
46731;SDS011;32477;51.474;5.696;2022-10-16T04:58:36;5.43;;;1.80;;
46731;SDS011;32477;51.474;5.696;2022-10-16T05:01:02;6.55;;;2.15;;
46731;SDS011;32477;51.474;5.696;2022-10-16T05:03:28;7.22;;;1.90;;
46731;SDS011;32477;51.474;5.696;2022-10-16T05:05:54;4.32;;;2.20;;
46731;SDS011;32477;51.474;5.696;2022-10-16T05:08:21;2.55;;;1.48;;
46731;SDS011;32477;51.474;5.696;2022-10-16T05:10:47;3.25;;;2.10;;
46731;SDS011;32477;51.474;5.696;2022-10-16T05:13:13;7.00;;;2.15;;
46731;SDS011;32477;51.474;5.696;2022-10-16T05:15:42;4.20;;;2.15;;
46731;SDS011;32477;51.474;5.696;2022-10-16T05:18:22;3.55;;;2.10;;
46731;SDS011;32477;51.474;5.696;2022-10-16T05:20:48;8.07;;;2.42;;
46731;SDS011;32477;51.474;5.696;2022-10-16T05:23:14;4.93;;;1.90;;
46731;SDS011;32477;51.474;5.696;2022-10-16T05:25:40;3.00;;;1.67;;
46731;SDS011;32477;51.474;5.696;2022-10-16T05:28:05;7.60;;;1.67;;
46731;SDS011;32477;51.474;5.696;2022-10-16T05:30:31;5.88;;;2.10;;
46731;SDS011;32477;51.474;5.696;2022-10-16T05:32:57;3.08;;;1.80;;
46731;SDS011;32477;51.474;5.696;2022-10-16T05:35:23;8.02;;;2.00;;
46731;SDS011;32477;51.474;5.696;2022-10-16T05:37:52;4.47;;;1.98;;
46731;SDS011;32477;51.474;5.696;2022-10-16T05:40:21;5.75;;;2.00;;
46731;SDS011;32477;51.474;5.696;2022-10-16T05:42:47;4.93;;;2.10;;
46731;SDS011;32477;51.474;5.696;2022-10-16T05:45:12;5.65;;;1.95;;
46731;SDS011;32477;51.474;5.696;2022-10-16T05:47:38;3.53;;;1.90;;
46731;SDS011;32477;51.474;5.696;2022-10-16T05:50:04;4.13;;;2.50;;
46731;SDS011;32477;51.474;5.696;2022-10-16T05:52:31;6.45;;;2.30;;
46731;SDS011;32477;51.474;5.696;2022-10-16T05:54:59;4.20;;;2.20;;
46731;SDS011;32477;51.474;5.696;2022-10-16T05:57:25;3.53;;;2.42;;
46731;SDS011;32477;51.474;5.696;2022-10-16T05:59:51;5.90;;;2.40;;
46731;SDS011;32477;51.474;5.696;2022-10-16T06:02:16;4.47;;;2.30;;
46731;SDS011;32477;51.474;5.696;2022-10-16T06:04:42;5.90;;;2.30;;
46731;SDS011;32477;51.474;5.696;2022-10-16T06:07:08;4.85;;;2.10;;
46731;SDS011;32477;51.474;5.696;2022-10-16T06:09:33;4.20;;;2.25;;
46731;SDS011;32477;51.474;5.696;2022-10-16T06:11:59;3.72;;;2.10;;
46731;SDS011;32477;51.474;5.696;2022-10-16T06:14:25;12.73;;;2.63;;
46731;SDS011;32477;51.474;5.696;2022-10-16T06:16:51;4.57;;;2.70;;
46731;SDS011;32477;51.474;5.696;2022-10-16T06:19:16;6.40;;;2.47;;
46731;SDS011;32477;51.474;5.696;2022-10-16T06:21:43;7.43;;;2.85;;
46731;SDS011;32477;51.474;5.696;2022-10-16T06:24:09;6.20;;;2.63;;
46731;SDS011;32477;51.474;5.696;2022-10-16T06:26:35;5.90;;;2.60;;
46731;SDS011;32477;51.474;5.696;2022-10-16T06:29:00;5.97;;;2.30;;
46731;SDS011;32477;51.474;5.696;2022-10-16T06:31:27;4.50;;;2.70;;
46731;SDS011;32477;51.474;5.696;2022-10-16T06:33:56;6.43;;;2.50;;
46731;SDS011;32477;51.474;5.696;2022-10-16T06:36:23;3.03;;;2.17;;
46731;SDS011;32477;51.474;5.696;2022-10-16T06:38:49;3.65;;;2.45;;
46731;SDS011;32477;51.474;5.696;2022-10-16T06:41:16;6.00;;;2.33;;
46731;SDS011;32477;51.474;5.696;2022-10-16T06:43:44;5.90;;;2.28;;
46731;SDS011;32477;51.474;5.696;2022-10-16T06:46:12;5.75;;;2.60;;
46731;SDS011;32477;51.474;5.696;2022-10-16T06:48:39;8.55;;;1.92;;
46731;SDS011;32477;51.474;5.696;2022-10-16T06:51:11;9.95;;;2.67;;
46731;SDS011;32477;51.474;5.696;2022-10-16T06:53:40;6.28;;;2.42;;
46731;SDS011;32477;51.474;5.696;2022-10-16T06:56:13;4.40;;;2.35;;
46731;SDS011;32477;51.474;5.696;2022-10-16T06:58:40;6.10;;;2.15;;
46731;SDS011;32477;51.474;5.696;2022-10-16T07:01:07;3.90;;;2.33;;
46731;SDS011;32477;51.474;5.696;2022-10-16T07:03:35;5.68;;;2.30;;
46731;SDS011;32477;51.474;5.696;2022-10-16T07:06:02;15.57;;;3.80;;
46731;SDS011;32477;51.474;5.696;2022-10-16T07:08:32;6.50;;;2.40;;
46731;SDS011;32477;51.474;5.696;2022-10-16T07:10:59;6.70;;;2.45;;
46731;SDS011;32477;51.474;5.696;2022-10-16T07:13:26;4.57;;;2.88;;
46731;SDS011;32477;51.474;5.696;2022-10-16T07:15:52;5.05;;;2.63;;
46731;SDS011;32477;51.474;5.696;2022-10-16T07:18:17;8.00;;;3.00;;
46731;SDS011;32477;51.474;5.696;2022-10-16T07:20:43;2.58;;;2.30;;
46731;SDS011;32477;51.474;5.696;2022-10-16T07:23:09;5.15;;;2.55;;
46731;SDS011;32477;51.474;5.696;2022-10-16T07:25:34;6.82;;;2.35;;
46731;SDS011;32477;51.474;5.696;2022-10-16T07:28:00;6.72;;;2.60;;
46731;SDS011;32477;51.474;5.696;2022-10-16T07:30:25;5.10;;;3.17;;
46731;SDS011;32477;51.474;5.696;2022-10-16T07:32:51;9.02;;;2.75;;
46731;SDS011;32477;51.474;5.696;2022-10-16T07:35:17;6.22;;;2.78;;
46731;SDS011;32477;51.474;5.696;2022-10-16T07:37:46;4.05;;;2.35;;
46731;SDS011;32477;51.474;5.696;2022-10-16T07:40:11;3.05;;;2.15;;
46731;SDS011;32477;51.474;5.696;2022-10-16T07:42:37;5.15;;;1.95;;
46731;SDS011;32477;51.474;5.696;2022-10-16T07:45:03;7.68;;;1.95;;
46731;SDS011;32477;51.474;5.696;2022-10-16T07:47:29;4.22;;;1.83;;
46731;SDS011;32477;51.474;5.696;2022-10-16T07:49:55;6.25;;;1.60;;
46731;SDS011;32477;51.474;5.696;2022-10-16T07:52:21;4.15;;;1.83;;
46731;SDS011;32477;51.474;5.696;2022-10-16T07:54:46;5.35;;;2.30;;
46731;SDS011;32477;51.474;5.696;2022-10-16T07:57:12;3.83;;;1.48;;
46731;SDS011;32477;51.474;5.696;2022-10-16T07:59:44;4.70;;;1.38;;
46731;SDS011;32477;51.474;5.696;2022-10-16T08:02:10;4.47;;;1.77;;
46731;SDS011;32477;51.474;5.696;2022-10-16T08:04:35;3.13;;;1.40;;
46731;SDS011;32477;51.474;5.696;2022-10-16T08:07:01;2.97;;;1.48;;
46731;SDS011;32477;51.474;5.696;2022-10-16T08:09:26;2.67;;;1.67;;
46731;SDS011;32477;51.474;5.696;2022-10-16T08:11:52;5.57;;;1.67;;
46731;SDS011;32477;51.474;5.696;2022-10-16T08:14:17;4.68;;;1.50;;
46731;SDS011;32477;51.474;5.696;2022-10-16T08:16:43;4.55;;;1.35;;
46731;SDS011;32477;51.474;5.696;2022-10-16T08:19:09;2.10;;;1.23;;
46731;SDS011;32477;51.474;5.696;2022-10-16T08:21:34;4.93;;;1.50;;
46731;SDS011;32477;51.474;5.696;2022-10-16T08:24:00;3.35;;;1.77;;
46731;SDS011;32477;51.474;5.696;2022-10-16T08:26:26;3.05;;;1.50;;
46731;SDS011;32477;51.474;5.696;2022-10-16T08:28:52;7.45;;;1.45;;
46731;SDS011;32477;51.474;5.696;2022-10-16T08:31:18;8.00;;;1.20;;
46731;SDS011;32477;51.474;5.696;2022-10-16T08:33:44;3.90;;;1.10;;
46731;SDS011;32477;51.474;5.696;2022-10-16T08:36:12;7.68;;;1.67;;
46731;SDS011;32477;51.474;5.696;2022-10-16T08:38:38;4.88;;;1.95;;
46731;SDS011;32477;51.474;5.696;2022-10-16T08:47:41;5.07;;;1.42;;
46731;SDS011;32477;51.474;5.696;2022-10-16T08:50:31;4.30;;;1.20;;
46731;SDS011;32477;51.474;5.696;2022-10-16T08:53:00;8.40;;;1.40;;
46731;SDS011;32477;51.474;5.696;2022-10-16T08:55:39;4.20;;;1.48;;
46731;SDS011;32477;51.474;5.696;2022-10-16T08:58:13;9.45;;;1.70;;
46731;SDS011;32477;51.474;5.696;2022-10-16T09:00:47;8.70;;;1.42;;
46731;SDS011;32477;51.474;5.696;2022-10-16T09:06:10;5.10;;;1.02;;
46731;SDS011;32477;51.474;5.696;2022-10-16T09:17:18;4.22;;;1.42;;
46731;SDS011;32477;51.474;5.696;2022-10-16T09:20:12;7.57;;;1.30;;
46731;SDS011;32477;51.474;5.696;2022-10-16T09:23:15;3.10;;;1.33;;
46731;SDS011;32477;51.474;5.696;2022-10-16T09:25:50;7.32;;;1.63;;
46731;SDS011;32477;51.474;5.696;2022-10-16T09:28:17;3.35;;;1.02;;
46731;SDS011;32477;51.474;5.696;2022-10-16T09:30:44;6.53;;;1.00;;
46731;SDS011;32477;51.474;5.696;2022-10-16T09:33:11;5.18;;;1.40;;
46731;SDS011;32477;51.474;5.696;2022-10-16T09:35:48;6.32;;;1.27;;
46731;SDS011;32477;51.474;5.696;2022-10-16T09:38:25;4.70;;;1.20;;
46731;SDS011;32477;51.474;5.696;2022-10-16T09:40:56;6.32;;;2.10;;
46731;SDS011;32477;51.474;5.696;2022-10-16T09:45:56;6.68;;;1.60;;
46731;SDS011;32477;51.474;5.696;2022-10-16T09:48:25;4.32;;;1.15;;
46731;SDS011;32477;51.474;5.696;2022-10-16T09:51:00;4.45;;;1.10;;
46731;SDS011;32477;51.474;5.696;2022-10-16T09:53:39;5.65;;;1.35;;
46731;SDS011;32477;51.474;5.696;2022-10-16T09:56:10;7.78;;;1.55;;
46731;SDS011;32477;51.474;5.696;2022-10-16T09:58:41;3.67;;;0.95;;
46731;SDS011;32477;51.474;5.696;2022-10-16T10:01:11;7.97;;;1.40;;
46731;SDS011;32477;51.474;5.696;2022-10-16T10:03:40;5.00;;;1.40;;
46731;SDS011;32477;51.474;5.696;2022-10-16T10:06:18;4.53;;;1.17;;
46731;SDS011;32477;51.474;5.696;2022-10-16T10:11:44;10.52;;;1.83;;
46731;SDS011;32477;51.474;5.696;2022-10-16T10:14:16;8.40;;;1.77;;
46731;SDS011;32477;51.474;5.696;2022-10-16T10:16:47;6.55;;;1.40;;
46731;SDS011;32477;51.474;5.696;2022-10-16T10:19:18;8.43;;;1.55;;
46731;SDS011;32477;51.474;5.696;2022-10-16T10:21:45;4.05;;;1.48;;
46731;SDS011;32477;51.474;5.696;2022-10-16T10:24:12;4.78;;;1.23;;
46731;SDS011;32477;51.474;5.696;2022-10-16T10:26:39;5.03;;;1.25;;
46731;SDS011;32477;51.474;5.696;2022-10-16T10:29:27;7.83;;;2.00;;
46731;SDS011;32477;51.474;5.696;2022-10-16T10:32:03;7.00;;;1.23;;
46731;SDS011;32477;51.474;5.696;2022-10-16T10:34:47;6.03;;;1.27;;
46731;SDS011;32477;51.474;5.696;2022-10-16T10:40:21;5.93;;;1.40;;
46731;SDS011;32477;51.474;5.696;2022-10-16T10:43:00;7.78;;;1.40;;
46731;SDS011;32477;51.474;5.696;2022-10-16T10:45:45;5.53;;;1.35;;
46731;SDS011;32477;51.474;5.696;2022-10-16T10:48:33;5.07;;;1.35;;
46731;SDS011;32477;51.474;5.696;2022-10-16T10:51:13;4.20;;;1.35;;
46731;SDS011;32477;51.474;5.696;2022-10-16T11:09:47;8.15;;;1.70;;
46731;SDS011;32477;51.474;5.696;2022-10-16T11:14:58;8.38;;;1.27;;
46731;SDS011;32477;51.474;5.696;2022-10-16T11:17:38;4.22;;;1.02;;
46731;SDS011;32477;51.474;5.696;2022-10-16T11:20:14;10.27;;;1.80;;
46731;SDS011;32477;51.474;5.696;2022-10-16T11:23:00;8.57;;;1.75;;
46731;SDS011;32477;51.474;5.696;2022-10-16T11:25:28;6.85;;;1.30;;
46731;SDS011;32477;51.474;5.696;2022-10-16T11:30:46;3.72;;;1.10;;
46731;SDS011;32477;51.474;5.696;2022-10-16T11:36:16;3.25;;;1.15;;
46731;SDS011;32477;51.474;5.696;2022-10-16T11:49:46;8.80;;;1.75;;
46731;SDS011;32477;51.474;5.696;2022-10-16T11:52:17;8.10;;;1.50;;
46731;SDS011;32477;51.474;5.696;2022-10-16T11:55:16;6.88;;;1.52;;
46731;SDS011;32477;51.474;5.696;2022-10-16T11:57:53;7.57;;;1.75;;
46731;SDS011;32477;51.474;5.696;2022-10-16T12:02:56;7.50;;;1.60;;
46731;SDS011;32477;51.474;5.696;2022-10-16T12:05:40;4.78;;;0.90;;
46731;SDS011;32477;51.474;5.696;2022-10-16T12:08:23;8.27;;;2.95;;
46731;SDS011;32477;51.474;5.696;2022-10-16T12:10:49;5.05;;;1.17;;
46731;SDS011;32477;51.474;5.696;2022-10-16T12:18:38;5.82;;;1.13;;
46731;SDS011;32477;51.474;5.696;2022-10-16T12:21:08;4.57;;;1.20;;
46731;SDS011;32477;51.474;5.696;2022-10-16T12:23:45;6.85;;;0.90;;
46731;SDS011;32477;51.474;5.696;2022-10-16T12:26:23;4.72;;;0.98;;
46731;SDS011;32477;51.474;5.696;2022-10-16T12:28:51;9.00;;;1.35;;
46731;SDS011;32477;51.474;5.696;2022-10-16T12:31:17;5.70;;;1.33;;
46731;SDS011;32477;51.474;5.696;2022-10-16T12:33:53;4.53;;;0.90;;
46731;SDS011;32477;51.474;5.696;2022-10-16T12:36:27;5.95;;;1.23;;
46731;SDS011;32477;51.474;5.696;2022-10-16T12:38:55;6.15;;;1.33;;
46731;SDS011;32477;51.474;5.696;2022-10-16T12:41:33;5.70;;;1.35;;
46731;SDS011;32477;51.474;5.696;2022-10-16T12:44:02;6.60;;;1.23;;
46731;SDS011;32477;51.474;5.696;2022-10-16T12:49:04;7.15;;;1.45;;
46731;SDS011;32477;51.474;5.696;2022-10-16T12:51:41;6.95;;;1.33;;
46731;SDS011;32477;51.474;5.696;2022-10-16T12:54:18;3.42;;;0.90;;
46731;SDS011;32477;51.474;5.696;2022-10-16T12:57:04;10.43;;;1.23;;
46731;SDS011;32477;51.474;5.696;2022-10-16T12:59:44;5.95;;;1.27;;
46731;SDS011;32477;51.474;5.696;2022-10-16T13:04:50;6.00;;;1.15;;
46731;SDS011;32477;51.474;5.696;2022-10-16T13:10:10;4.40;;;1.27;;
46731;SDS011;32477;51.474;5.696;2022-10-16T13:15:34;5.18;;;1.05;;
46731;SDS011;32477;51.474;5.696;2022-10-16T13:21:17;9.77;;;1.45;;
46731;SDS011;32477;51.474;5.696;2022-10-16T13:24:00;6.28;;;1.33;;
46731;SDS011;32477;51.474;5.696;2022-10-16T13:29:22;5.85;;;1.40;;
46731;SDS011;32477;51.474;5.696;2022-10-16T13:31:48;5.93;;;1.08;;
46731;SDS011;32477;51.474;5.696;2022-10-16T13:34:14;4.07;;;0.77;;
46731;SDS011;32477;51.474;5.696;2022-10-16T13:36:44;8.85;;;1.13;;
46731;SDS011;32477;51.474;5.696;2022-10-16T13:39:25;8.95;;;0.95;;
46731;SDS011;32477;51.474;5.696;2022-10-16T13:42:00;7.95;;;1.35;;
46731;SDS011;32477;51.474;5.696;2022-10-16T13:44:28;7.47;;;1.45;;
46731;SDS011;32477;51.474;5.696;2022-10-16T13:47:00;4.40;;;1.02;;
46731;SDS011;32477;51.474;5.696;2022-10-16T13:49:27;4.55;;;0.75;;
46731;SDS011;32477;51.474;5.696;2022-10-16T13:51:56;11.98;;;1.17;;
46731;SDS011;32477;51.474;5.696;2022-10-16T13:54:23;3.78;;;0.80;;
46731;SDS011;32477;51.474;5.696;2022-10-16T13:56:50;6.75;;;1.20;;
46731;SDS011;32477;51.474;5.696;2022-10-16T13:59:24;8.05;;;1.65;;
46731;SDS011;32477;51.474;5.696;2022-10-16T14:01:50;3.37;;;1.07;;
46731;SDS011;32477;51.474;5.696;2022-10-16T14:04:19;5.93;;;1.30;;
46731;SDS011;32477;51.474;5.696;2022-10-16T14:06:46;7.30;;;1.40;;
46731;SDS011;32477;51.474;5.696;2022-10-16T14:11:52;4.13;;;1.05;;
46731;SDS011;32477;51.474;5.696;2022-10-16T14:14:39;8.40;;;1.50;;
46731;SDS011;32477;51.474;5.696;2022-10-16T14:17:13;7.53;;;1.23;;
46731;SDS011;32477;51.474;5.696;2022-10-16T14:19:40;5.97;;;1.05;;
46731;SDS011;32477;51.474;5.696;2022-10-16T14:28:00;9.18;;;1.52;;
46731;SDS011;32477;51.474;5.696;2022-10-16T14:30:48;3.90;;;1.55;;
46731;SDS011;32477;51.474;5.696;2022-10-16T14:33:30;5.72;;;1.70;;
46731;SDS011;32477;51.474;5.696;2022-10-16T14:38:38;6.45;;;1.65;;
46731;SDS011;32477;51.474;5.696;2022-10-16T14:41:06;4.78;;;1.60;;
46731;SDS011;32477;51.474;5.696;2022-10-16T14:46:02;7.05;;;1.83;;
46731;SDS011;32477;51.474;5.696;2022-10-16T14:48:31;5.35;;;1.38;;
46731;SDS011;32477;51.474;5.696;2022-10-16T14:50:57;5.78;;;1.48;;
46731;SDS011;32477;51.474;5.696;2022-10-16T14:53:23;6.00;;;2.03;;
46731;SDS011;32477;51.474;5.696;2022-10-16T14:55:49;9.93;;;1.38;;
46731;SDS011;32477;51.474;5.696;2022-10-16T14:58:16;6.57;;;1.52;;
46731;SDS011;32477;51.474;5.696;2022-10-16T15:00:44;7.38;;;1.70;;
46731;SDS011;32477;51.474;5.696;2022-10-16T15:03:10;4.32;;;1.77;;
46731;SDS011;32477;51.474;5.696;2022-10-16T15:05:36;9.43;;;2.17;;
46731;SDS011;32477;51.474;5.696;2022-10-16T15:08:01;7.43;;;2.22;;
46731;SDS011;32477;51.474;5.696;2022-10-16T15:10:29;9.73;;;1.95;;
46731;SDS011;32477;51.474;5.696;2022-10-16T15:12:55;5.18;;;1.23;;
46731;SDS011;32477;51.474;5.696;2022-10-16T15:15:23;7.07;;;2.00;;
46731;SDS011;32477;51.474;5.696;2022-10-16T15:18:06;10.80;;;1.83;;
46731;SDS011;32477;51.474;5.696;2022-10-16T15:20:33;7.38;;;1.88;;
46731;SDS011;32477;51.474;5.696;2022-10-16T15:23:10;18.98;;;3.83;;
46731;SDS011;32477;51.474;5.696;2022-10-16T15:28:09;5.35;;;1.95;;
46731;SDS011;32477;51.474;5.696;2022-10-16T15:30:36;12.65;;;1.98;;
46731;SDS011;32477;51.474;5.696;2022-10-16T15:33:02;6.80;;;1.50;;
46731;SDS011;32477;51.474;5.696;2022-10-16T15:35:29;7.95;;;1.55;;
46731;SDS011;32477;51.474;5.696;2022-10-16T15:37:57;8.77;;;1.52;;
46731;SDS011;32477;51.474;5.696;2022-10-16T15:40:23;3.25;;;1.90;;
46731;SDS011;32477;51.474;5.696;2022-10-16T15:42:48;6.30;;;2.08;;
46731;SDS011;32477;51.474;5.696;2022-10-16T15:45:14;6.18;;;1.98;;
46731;SDS011;32477;51.474;5.696;2022-10-16T15:47:41;11.90;;;2.70;;
46731;SDS011;32477;51.474;5.696;2022-10-16T15:50:09;7.60;;;1.70;;
46731;SDS011;32477;51.474;5.696;2022-10-16T15:52:37;5.43;;;1.90;;
46731;SDS011;32477;51.474;5.696;2022-10-16T15:55:04;4.35;;;1.67;;
46731;SDS011;32477;51.474;5.696;2022-10-16T15:57:33;7.90;;;1.55;;
46731;SDS011;32477;51.474;5.696;2022-10-16T15:59:59;6.88;;;1.63;;
46731;SDS011;32477;51.474;5.696;2022-10-16T16:02:24;6.72;;;1.60;;
46731;SDS011;32477;51.474;5.696;2022-10-16T16:04:50;4.88;;;1.63;;
46731;SDS011;32477;51.474;5.696;2022-10-16T16:07:16;5.63;;;1.33;;
46731;SDS011;32477;51.474;5.696;2022-10-16T16:09:42;5.75;;;1.95;;
46731;SDS011;32477;51.474;5.696;2022-10-16T16:12:09;3.78;;;1.80;;
46731;SDS011;32477;51.474;5.696;2022-10-16T16:14:35;5.55;;;1.35;;
46731;SDS011;32477;51.474;5.696;2022-10-16T16:17:01;2.50;;;1.58;;
46731;SDS011;32477;51.474;5.696;2022-10-16T16:19:27;7.72;;;1.75;;
46731;SDS011;32477;51.474;5.696;2022-10-16T16:21:52;7.50;;;1.83;;
46731;SDS011;32477;51.474;5.696;2022-10-16T16:24:18;8.80;;;1.92;;
46731;SDS011;32477;51.474;5.696;2022-10-16T16:26:44;9.23;;;2.53;;
46731;SDS011;32477;51.474;5.696;2022-10-16T16:29:13;6.15;;;2.00;;
46731;SDS011;32477;51.474;5.696;2022-10-16T16:31:40;4.95;;;1.92;;
46731;SDS011;32477;51.474;5.696;2022-10-16T16:34:07;10.85;;;2.55;;
46731;SDS011;32477;51.474;5.696;2022-10-16T16:36:33;5.47;;;1.80;;
46731;SDS011;32477;51.474;5.696;2022-10-16T16:38:59;4.63;;;2.30;;
46731;SDS011;32477;51.474;5.696;2022-10-16T16:41:26;9.20;;;2.83;;
46731;SDS011;32477;51.474;5.696;2022-10-16T16:43:54;6.25;;;2.10;;
46731;SDS011;32477;51.474;5.696;2022-10-16T16:46:20;8.07;;;3.75;;
46731;SDS011;32477;51.474;5.696;2022-10-16T16:48:46;11.23;;;3.92;;
46731;SDS011;32477;51.474;5.696;2022-10-16T16:51:15;18.65;;;4.25;;
46731;SDS011;32477;51.474;5.696;2022-10-16T16:53:45;22.30;;;3.97;;
46731;SDS011;32477;51.474;5.696;2022-10-16T16:56:12;17.75;;;4.18;;
46731;SDS011;32477;51.474;5.696;2022-10-16T16:58:39;12.52;;;3.75;;
46731;SDS011;32477;51.474;5.696;2022-10-16T17:01:05;8.35;;;3.15;;
46731;SDS011;32477;51.474;5.696;2022-10-16T17:03:35;10.82;;;3.30;;
46731;SDS011;32477;51.474;5.696;2022-10-16T17:06:02;15.63;;;3.42;;
46731;SDS011;32477;51.474;5.696;2022-10-16T17:08:29;8.32;;;2.92;;